Decoded Metar for VHHH (HONG KONG in HONG KONG) (IATA:HKG) | Meteo·Mobile Aviation Weather
aviador You're here:

VHHH Decoded Metar

HONG KONG in HONG KONG
Report Time2019-10-21 07:00:00
UTC Time2019-10-21 07:14:00
Flight Rules vfr VFR
Wind220° at 08 kt
W.Decomp.*RWY 25: 7.1 kt HW 3.8 kt LCW
Visibility9999 m
Phenomena:N/A
Clouds:Few 025 Hf
Scattered 035 Hf
Expected CloudBase > 3,200 ft AGL from Temp-Dew spread
CeilingNone
Temp27°C (ISA +12)
Dew Point19°C (62% RH)
Heat Index28.2°C
QNH1012 hPa
Density Alt1,745 ft
Elevation30 ft
Report Wrong Elevation
Raw Report
VHHH 210700Z 22008KT 160V250 9999 FEW025 SCT035 27/19 Q1012
NOSIG=

Extra information for VHHH:More info

Metar Taf Metar & Taf Last 4 Metars F.Rules Stats Wind Profile Meteogram Temp Stats Airport Information Weather charts Add Link Nearby VenuesMetar ALERT Operation Metar Decoded Social comments